| time (UTC) | temp C | wind direction | speed KPH | gust KPH | rain 1hr cm | rain 24hr cm | rain mn cm | humidity % | barometer mb |
| 20260504110504 | 6 | 178 | 0.0 | 3.2 | 0.00 | 0.00 | 0.00 | 81 | 1003.9 |
| 20260504100503 | 7 | 12 | 0.0 | 3.2 | 0.00 | 0.00 | 0.00 | 78 | 1004.4 |
| 20260504082004 | 8 | 12 | 0.0 | 1.6 | 0.00 | 0.00 | 0.00 | 71 | 1005.4 |
| 20260504081515 | 8 | 12 | 0.0 | 3.2 | 0.00 | 0.00 | 0.00 | 70 | 1005.4 |
| 20260504081004 | 8 | 12 | 0.0 | 3.2 | 0.00 | 0.00 | 0.00 | 70 | 1005.4 |
| 20260504080504 | 8 | 12 | 0.0 | 3.2 | 0.00 | 0.00 | 0.00 | 70 | 1005.6 |
| 20260504050504 | 12 | 247 | 0.0 | 3.2 | 0.00 | 0.00 | 0.00 | 54 | 1007.4 |
| 20260504050017 | 12 | 247 | 0.0 | 3.2 | 0.00 | 0.00 | 0.00 | 53 | 1007.5 |
| 20260504045505 | 12 | 247 | 0.0 | 3.2 | 0.00 | 0.00 | 0.00 | 52 | 1007.5 |
| 20260504045003 | 12 | 252 | 0.0 | 3.2 | 0.00 | 0.00 | 0.00 | 52 | 1007.4 |
| 20260504044520 | 12 | 252 | 0.0 | 3.2 | 0.00 | 0.00 | 0.00 | 51 | 1007.4 |
| 20260504044007 | 13 | 252 | 0.0 | 3.2 | 0.00 | 0.00 | 0.00 | 50 | 1007.5 |
| 20260504043504 | 13 | 252 | 0.0 | 3.2 | 0.00 | 0.00 | 0.00 | 48 | 1007.6 |
| 20260504043027 | 13 | 252 | 0.0 | 3.2 | 0.00 | 0.00 | 0.00 | 49 | 1007.7 |
| 20260504042508 | 13 | 252 | 0.0 | 3.2 | 0.00 | 0.00 | 0.00 | 48 | 1007.6 |
| 20260504042007 | 13 | 250 | 0.0 | 3.2 | 0.00 | 0.00 | 0.00 | 47 | 1007.8 |
| 20260504041502 | 14 | 249 | 0.0 | 3.2 | 0.00 | 0.00 | 0.00 | 45 | 1007.9 |
| 20260504041005 | 14 | 269 | 0.0 | 3.2 | 0.00 | 0.00 | 0.00 | 46 | 1007.8 |
| 20260504040508 | 14 | 269 | 0.0 | 3.2 | 0.00 | 0.00 | 0.00 | 43 | 1007.8 |
| 20260504040012 | 14 | 269 | 0.0 | 3.2 | 0.00 | 0.00 | 0.00 | 43 | 1007.8 |
| 20260504035505 | 14 | 269 | 0.0 | 3.2 | 0.00 | 0.00 | 0.00 | 43 | 1007.8 |
| 20260504035005 | 14 | 269 | 0.0 | 3.2 | 0.00 | 0.00 | 0.00 | 44 | 1007.8 |
| 20260504034513 | 14 | 268 | 0.0 | 3.2 | 0.00 | 0.00 | 0.00 | 43 | 1007.9 |
| 20260504034009 | 15 | 261 | 0.0 | 3.2 | 0.00 | 0.00 | 0.00 | 44 | 1007.9 |
| 20260504033504 | 15 | 268 | 0.0 | 3.2 | 0.00 | 0.00 | 0.00 | 43 | 1008.0 |
| 20260504033016 | 15 | 268 | 0.0 | 3.2 | 0.00 | 0.00 | 0.00 | 42 | 1008.1 |
| 20260504032509 | 15 | 265 | 0.0 | 3.2 | 0.00 | 0.00 | 0.00 | 42 | 1008.1 |
| 20260504032008 | 15 | 265 | 1.6 | 3.2 | 0.00 | 0.00 | 0.00 | 40 | 1008.1 |
| 20260504031516 | 15 | 261 | 0.0 | 3.2 | 0.00 | 0.00 | 0.00 | 40 | 1008.1 |
| 20260504031009 | 16 | 261 | 0.0 | 3.2 | 0.00 | 0.00 | 0.00 | 40 | 1008.0 |
| 20260504030504 | 16 | 261 | 0.0 | 3.2 | 0.00 | 0.00 | 0.00 | 39 | 1007.9 |
| 20260504030011 | 16 | 261 | 0.0 | 3.2 | 0.00 | 0.00 | 0.00 | 39 | 1008.0 |
| 20260504025504 | 16 | 269 | 0.0 | 3.2 | 0.00 | 0.00 | 0.00 | 38 | 1007.9 |
| 20260504025006 | 16 | 269 | 0.0 | 3.2 | 0.00 | 0.00 | 0.00 | 37 | 1007.8 |
| 20260504024512 | 16 | 249 | 0.0 | 3.2 | 0.00 | 0.00 | 0.00 | 37 | 1007.8 |
| 20260504024007 | 16 | 248 | 0.0 | 3.2 | 0.00 | 0.00 | 0.00 | 37 | 1007.8 |
| 20260504023508 | 16 | 261 | 0.0 | 3.2 | 0.00 | 0.00 | 0.00 | 37 | 1007.7 |
| 20260504023016 | 17 | 261 | 0.0 | 3.2 | 0.00 | 0.00 | 0.00 | 37 | 1007.6 |
| 20260504022506 | 17 | 244 | 0.0 | 3.2 | 0.00 | 0.00 | 0.00 | 35 | 1007.6 |
| 20260504022004 | 17 | 244 | 1.6 | 3.2 | 0.00 | 0.00 | 0.00 | 37 | 1007.6 |
| 20260504021517 | 17 | 294 | 0.0 | 3.2 | 0.00 | 0.00 | 0.00 | 36 | 1007.4 |
| 20260504021006 | 18 | 294 | 0.0 | 3.2 | 0.00 | 0.00 | 0.00 | 34 | 1007.3 |
| 20260504020508 | 18 | 294 | 0.0 | 3.2 | 0.00 | 0.00 | 0.00 | 34 | 1007.4 |
| 20260504020016 | 18 | 259 | 0.0 | 3.2 | 0.00 | 0.00 | 0.00 | 33 | 1007.3 |
| 20260504015504 | 18 | 259 | 0.0 | 3.2 | 0.00 | 0.00 | 0.00 | 33 | 1007.4 |
| 20260504015009 | 18 | 334 | 0.0 | 3.2 | 0.00 | 0.00 | 0.00 | 31 | 1007.4 |
| 20260504014517 | 19 | 331 | 0.0 | 3.2 | 0.00 | 0.00 | 0.00 | 31 | 1007.3 |
| 20260504014005 | 19 | 326 | 0.0 | 3.2 | 0.00 | 0.00 | 0.00 | 31 | 1007.3 |
| 20260504013503 | 20 | 275 | 0.0 | 3.2 | 0.00 | 0.00 | 0.00 | 31 | 1007.3 |
| 20260504013030 | 20 | 263 | 0.0 | 3.2 | 0.00 | 0.00 | 0.00 | 30 | 1007.3 |
| 20260504012508 | 20 | 266 | 0.0 | 3.2 | 0.00 | 0.00 | 0.00 | 30 | 1007.2 |
| 20260504012009 | 20 | 274 | 0.0 | 6.4 | 0.00 | 0.00 | 0.00 | 29 | 1007.2 |
| 20260504011520 | 20 | 281 | 0.0 | 8.0 | 0.00 | 0.00 | 0.00 | 29 | 1007.1 |
| 20260504011008 | 20 | 222 | 1.6 | 8.0 | 0.00 | 0.00 | 0.00 | 29 | 1007.1 |
| 20260504010507 | 21 | 281 | 4.8 | 8.0 | 0.00 | 0.00 | 0.00 | 29 | 1007.1 |
| 20260504010021 | 21 | 265 | 1.6 | 6.4 | 0.00 | 0.00 | 0.00 | 29 | 1007.0 |
| 20260504005510 | 21 | 190 | 1.6 | 6.4 | 0.00 | 0.00 | 0.00 | 29 | 1007.0 |
| 20260504005011 | 21 | 263 | 1.6 | 9.7 | 0.00 | 0.00 | 0.00 | 28 | 1007.0 |
| 20260504004520 | 22 | 291 | 3.2 | 9.7 | 0.00 | 0.00 | 0.00 | 28 | 1006.9 |
| 20260504004004 | 22 | 281 | 0.0 | 3.2 | 0.00 | 0.00 | 0.00 | 28 | 1006.9 |
| 20260504003506 | 22 | 275 | 1.6 | 12.9 | 0.00 | 0.00 | 0.00 | 27 | 1006.9 |
| 20260504003012 | 22 | 249 | 3.2 | 11.3 | 0.00 | 0.00 | 0.00 | 27 | 1006.9 |
| 20260504002510 | 22 | 292 | 3.2 | 6.4 | 0.00 | 0.00 | 0.00 | 26 | 1006.9 |
| 20260504002006 | 22 | 302 | 4.8 | 11.3 | 0.00 | 0.00 | 0.00 | 25 | 1006.9 |
| 20260504001517 | 23 | 270 | 4.8 | 16.1 | 0.00 | 0.00 | 0.00 | 25 | 1006.9 |
| 20260504001007 | 23 | 263 | 4.8 | 17.7 | 0.00 | 0.00 | 0.00 | 24 | 1006.8 |
| 20260504000510 | 23 | 317 | 4.8 | 17.7 | 0.00 | 0.00 | 0.00 | 24 | 1006.8 |
| 20260504000020 | 23 | 289 | 6.4 | 17.7 | 0.00 | 0.00 | 0.00 | 24 | 1006.8 |
| 20260503235507 | 23 | 317 | 8.0 | 17.7 | 0.00 | 0.00 | 0.00 | 23 | 1006.7 |
| 20260503235007 | 23 | 296 | 6.4 | 17.7 | 0.00 | 0.00 | 0.00 | 23 | 1006.7 |
| 20260503234523 | 23 | 259 | 3.2 | 19.3 | 0.00 | 0.00 | 0.00 | 25 | 1006.7 |
| 20260503234009 | 23 | 323 | 6.4 | 19.3 | 0.00 | 0.00 | 0.00 | 25 | 1006.7 |
| 20260503233508 | 23 | 307 | 6.4 | 20.9 | 0.00 | 0.00 | 0.00 | 25 | 1006.7 |
| 20260503233022 | 23 | 260 | 3.2 | 20.9 | 0.00 | 0.00 | 0.00 | 25 | 1006.7 |
| 20260503232504 | 24 | 271 | 8.0 | 20.9 | 0.00 | 0.00 | 0.00 | 24 | 1006.6 |
| 20260503232008 | 23 | 265 | 8.0 | 20.9 | 0.00 | 0.00 | 0.00 | 24 | 1006.7 |
| 20260503231518 | 23 | 303 | 8.0 | 22.5 | 0.00 | 0.00 | 0.00 | 24 | 1006.7 |
| 20260503231007 | 23 | 229 | 6.4 | 22.5 | 0.00 | 0.00 | 0.00 | 25 | 1006.7 |
| 20260503230511 | 24 | 283 | 11.3 | 22.5 | 0.00 | 0.00 | 0.00 | 24 | 1006.7 |
| 20260503230019 | 24 | 250 | 4.8 | 24.1 | 0.00 | 0.00 | 0.00 | 24 | 1006.7 |
| 20260503225509 | 24 | 330 | 3.2 | 24.1 | 0.00 | 0.00 | 0.00 | 25 | 1006.7 |
| 20260503225010 | 23 | 282 | 11.3 | 25.7 | 0.00 | 0.00 | 0.00 | 25 | 1006.8 |
| 20260503224524 | 24 | 259 | 12.9 | 27.4 | 0.00 | 0.00 | 0.00 | 24 | 1006.8 |
| 20260503224008 | 24 | 269 | 8.0 | 27.4 | 0.00 | 0.00 | 0.00 | 25 | 1006.7 |
| 20260503223507 | 24 | 360 | 6.4 | 22.5 | 0.00 | 0.00 | 0.00 | 25 | 1006.6 |
| 20260503223022 | 24 | 275 | 6.4 | 22.5 | 0.00 | 0.00 | 0.00 | 25 | 1006.6 |
| 20260503222507 | 24 | 255 | 4.8 | 19.3 | 0.00 | 0.00 | 0.00 | 25 | 1006.6 |
| 20260503222012 | 24 | 277 | 8.0 | 22.5 | 0.00 | 0.00 | 0.00 | 24 | 1006.6 |
| 20260503221515 | 24 | 304 | 8.0 | 24.1 | 0.00 | 0.00 | 0.00 | 24 | 1006.5 |
| 20260503221011 | 23 | 321 | 14.5 | 24.1 | 0.00 | 0.00 | 0.00 | 24 | 1006.6 |
| 20260503220511 | 23 | 270 | 8.0 | 17.7 | 0.00 | 0.00 | 0.00 | 32 | 1006.5 |
| 20260503220020 | 23 | 246 | 8.0 | 19.3 | 0.00 | 0.00 | 0.00 | 36 | 1006.5 |
| 20260503215508 | 23 | 244 | 8.0 | 24.1 | 0.00 | 0.00 | 0.00 | 36 | 1006.6 |
| 20260503215010 | 23 | 271 | 6.4 | 24.1 | 0.00 | 0.00 | 0.00 | 38 | 1006.6 |
| 20260503214524 | 23 | 261 | 8.0 | 24.1 | 0.00 | 0.00 | 0.00 | 36 | 1006.5 |
| 20260503214009 | 23 | 259 | 8.0 | 24.1 | 0.00 | 0.00 | 0.00 | 38 | 1006.6 |
| 20260503213511 | 23 | 239 | 12.9 | 24.1 | 0.00 | 0.00 | 0.00 | 37 | 1006.5 |
| 20260503213026 | 23 | 255 | 9.7 | 24.1 | 0.00 | 0.00 | 0.00 | 37 | 1006.7 |
| 20260503212509 | 23 | 175 | 4.8 | 22.5 | 0.00 | 0.00 | 0.00 | 38 | 1006.7 |
| 20260503212010 | 22 | 291 | 9.7 | 22.5 | 0.00 | 0.00 | 0.00 | 38 | 1006.7 |
| 20260503211526 | 22 | 211 | 8.0 | 20.9 | 0.00 | 0.00 | 0.00 | 40 | 1006.8 |
| 20260503211010 | 22 | 186 | 9.7 | 20.9 | 0.00 | 0.00 | 0.00 | 39 | 1006.9 |
| 20260503210510 | 22 | 263 | 11.3 | 20.9 | 0.00 | 0.00 | 0.00 | 39 | 1007.0 |
| 20260503210018 | 22 | 283 | 8.0 | 19.3 | 0.00 | 0.00 | 0.00 | 40 | 1007.1 |
| 20260503205506 | 22 | 207 | 6.4 | 29.0 | 0.00 | 0.00 | 0.00 | 41 | 1007.1 |
| 20260503205011 | 22 | 186 | 11.3 | 33.8 | 0.00 | 0.00 | 0.00 | 40 | 1007.3 |
| 20260503204522 | 22 | 263 | 9.7 | 33.8 | 0.00 | 0.00 | 0.00 | 39 | 1007.3 |
| 20260503204009 | 22 | 254 | 8.0 | 24.1 | 0.00 | 0.00 | 0.00 | 39 | 1007.3 |
| 20260503203507 | 23 | 251 | 8.0 | 24.1 | 0.00 | 0.00 | 0.00 | 37 | 1007.3 |
| 20260503203008 | 23 | 182 | 4.8 | 20.9 | 0.00 | 0.00 | 0.00 | 30 | 1007.5 |
| 20260503202504 | 23 | 298 | 8.0 | 22.5 | 0.00 | 0.00 | 0.00 | 28 | 1007.1 |
| 20260503202007 | 23 | 325 | 4.8 | 25.7 | 0.00 | 0.00 | 0.00 | 30 | 1007.2 |
| 20260503201510 | 23 | 286 | 8.0 | 25.7 | 0.00 | 0.00 | 0.00 | 30 | 1007.1 |
| 20260503201009 | 23 | 277 | 9.7 | 19.3 | 0.00 | 0.00 | 0.00 | 34 | 1007.3 |
| 20260503200505 | 22 | 258 | 4.8 | 19.3 | 0.00 | 0.00 | 0.00 | 37 | 1007.3 |
| 20260503200014 | 23 | 292 | 9.7 | 16.1 | 0.00 | 0.00 | 0.00 | 35 | 1007.3 |
| 20260503195509 | 23 | 289 | 6.4 | 22.5 | 0.00 | 0.00 | 0.00 | 34 | 1007.3 |
| 20260503195008 | 23 | 236 | 8.0 | 22.5 | 0.00 | 0.00 | 0.00 | 32 | 1007.3 |
| 20260503194534 | 23 | 266 | 6.4 | 17.7 | 0.00 | 0.00 | 0.00 | 35 | 1007.4 |
| 20260503194010 | 22 | 294 | 4.8 | 17.7 | 0.00 | 0.00 | 0.00 | 35 | 1007.5 |
| 20260503193505 | 22 | 267 | 6.4 | 17.7 | 0.00 | 0.00 | 0.00 | 34 | 1007.6 |
| 20260503193005 | 22 | 153 | 4.8 | 17.7 | 0.00 | 0.00 | 0.00 | 36 | 1007.7 |
| 20260503192504 | 22 | 246 | 6.4 | 24.1 | 0.00 | 0.00 | 0.00 | 37 | 1007.7 |
| 20260503192004 | 22 | 279 | 9.7 | 24.1 | 0.00 | 0.00 | 0.00 | 35 | 1007.9 |
| 20260503191506 | 22 | 288 | 6.4 | 17.7 | 0.00 | 0.00 | 0.00 | 36 | 1007.8 |
| 20260503191007 | 22 | 281 | 6.4 | 17.7 | 0.00 | 0.00 | 0.00 | 36 | 1007.8 |
| 20260503190508 | 22 | 227 | 8.0 | 22.5 | 0.00 | 0.00 | 0.00 | 38 | 1008.0 |
| 20260503190012 | 21 | 301 | 6.4 | 22.5 | 0.00 | 0.00 | 0.00 | 37 | 1008.0 |
| 20260503185506 | 21 | 298 | 6.4 | 22.5 | 0.00 | 0.00 | 0.00 | 39 | 1008.1 |
| 20260503185005 | 21 | 278 | 11.3 | 22.5 | 0.00 | 0.00 | 0.00 | 37 | 1008.1 |
| 20260503184523 | 21 | 279 | 9.7 | 22.5 | 0.00 | 0.00 | 0.00 | 37 | 1008.2 |
| 20260503184007 | 21 | 327 | 9.7 | 19.3 | 0.00 | 0.00 | 0.00 | 37 | 1008.2 |
| 20260503183508 | 21 | 281 | 11.3 | 22.5 | 0.00 | 0.00 | 0.00 | 39 | 1008.2 |
| 20260503183020 | 21 | 254 | 6.4 | 22.5 | 0.00 | 0.00 | 0.00 | 40 | 1008.2 |
| 20260503182507 | 21 | 198 | 4.8 | 22.5 | 0.00 | 0.00 | 0.00 | 41 | 1008.4 |
| 20260503182006 | 21 | 184 | 4.8 | 20.9 | 0.00 | 0.00 | 0.00 | 42 | 1008.5 |
| 20260503181506 | 20 | 239 | 8.0 | 20.9 | 0.00 | 0.00 | 0.00 | 40 | 1008.5 |
| 20260503181005 | 20 | 300 | 8.0 | 17.7 | 0.00 | 0.00 | 0.00 | 40 | 1008.6 |
| 20260503180506 | 20 | 213 | 8.0 | 17.7 | 0.00 | 0.00 | 0.00 | 41 | 1008.6 |
| 20260503180010 | 20 | 296 | 4.8 | 27.4 | 0.00 | 0.00 | 0.00 | 41 | 1008.7 |
| 20260503175508 | 20 | 188 | 8.0 | 27.4 | 0.00 | 0.00 | 0.00 | 40 | 1008.9 |
| 20260503175005 | 19 | 272 | 6.4 | 20.9 | 0.00 | 0.00 | 0.00 | 39 | 1008.7 |
| 20260503174514 | 19 | 213 | 9.7 | 19.3 | 0.00 | 0.00 | 0.00 | 41 | 1008.9 |
| 20260503174006 | 19 | 234 | 8.0 | 19.3 | 0.00 | 0.00 | 0.00 | 41 | 1008.9 |
| 20260503173508 | 19 | 220 | 4.8 | 22.5 | 0.00 | 0.00 | 0.00 | 41 | 1008.9 |
| 20260503173021 | 18 | 234 | 8.0 | 22.5 | 0.00 | 0.00 | 0.00 | 40 | 1009.1 |
| 20260503172510 | 18 | 215 | 11.3 | 20.9 | 0.00 | 0.00 | 0.00 | 40 | 1009.2 |
| 20260503172011 | 18 | 352 | 4.8 | 20.9 | 0.00 | 0.00 | 0.00 | 44 | 1009.2 |
| 20260503171522 | 18 | 316 | 6.4 | 19.3 | 0.00 | 0.00 | 0.00 | 44 | 1009.2 |
| 20260503171007 | 18 | 197 | 4.8 | 19.3 | 0.00 | 0.00 | 0.00 | 41 | 1009.2 |
| 20260503170504 | 18 | 205 | 4.8 | 19.3 | 0.00 | 0.00 | 0.00 | 44 | 1009.2 |
| 20260503151007 | 14 | 192 | 6.4 | 19.3 | 0.00 | 0.00 | 0.00 | 49 | 1010.6 |
| 20260503150509 | 13 | 159 | 8.0 | 16.1 | 0.00 | 0.00 | 0.00 | 50 | 1010.7 |
| 20260503131009 | 10 | 151 | 1.6 | 6.4 | 0.00 | 0.00 | 0.00 | 56 | 1012.4 |
| 20260503130508 | 10 | 168 | 3.2 | 8.0 | 0.00 | 0.00 | 0.00 | 56 | 1012.8 |